Time;durP1;ratioP1;P1;durP2;ratioP2;P2;SDS_P1;SDS_P2;PMS_P1;PMS_P2;Temp;Humidity;BMP_temperature;BMP_pressure;BME280_temperature;BME280_humidity;BME280_pressure;Samples;Min_cycle;Max_cycle;Signal;HPM_P1;HPM_P2
2024/01/22 00:01:10;;;;;;;14.27;6.93;;;;;;;2.98;100.00;100893.19;5003848;28;20045;-72
2024/01/22 00:03:38;;;;;;;13.00;7.90;;;;;;;3.04;100.00;100885.28;5025777;28;20050;-73
2024/01/22 00:06:11;;;;;;;14.32;7.82;;;;;;;3.07;100.00;100900.94;5046552;28;20048;-73
2024/01/22 00:08:42;;;;;;;11.63;6.90;;;;;;;3.04;100.00;100887.88;5047999;28;20053;-74
2024/01/22 00:11:11;;;;;;;15.48;7.03;;;;;;;3.04;100.00;100884.41;5046218;28;20117;-73
2024/01/22 00:13:41;;;;;;;12.82;7.03;;;;;;;3.02;100.00;100878.31;5024653;28;20071;-72
2024/01/22 00:16:11;;;;;;;12.43;7.13;;;;;;;3.05;100.00;100880.91;5056187;28;20048;-74
2024/01/22 00:18:39;;;;;;;14.10;7.18;;;;;;;3.11;100.00;100886.09;5035396;28;20526;-74
2024/01/22 00:21:10;;;;;;;10.55;6.90;;;;;;;3.15;100.00;100872.94;5046277;28;20103;-75
2024/01/22 00:23:38;;;;;;;14.30;7.20;;;;;;;3.18;100.00;100859.84;5039545;28;20091;-74
2024/01/22 00:26:12;;;;;;;12.63;6.90;;;;;;;3.25;100.00;100859.81;5036140;28;20044;-73
2024/01/22 00:28:42;;;;;;;11.18;6.45;;;;;;;3.27;100.00;100871.13;5033487;28;20159;-75
2024/01/22 00:31:10;;;;;;;12.70;7.22;;;;;;;3.29;100.00;100869.38;5028403;28;20516;-73
2024/01/22 00:33:39;;;;;;;15.35;6.50;;;;;;;3.22;100.00;100847.59;5030218;28;20045;-74
2024/01/22 00:36:08;;;;;;;13.15;6.68;;;;;;;3.08;100.00;100833.78;5037698;28;20060;-73
2024/01/22 00:38:42;;;;;;;12.43;6.00;;;;;;;3.22;100.00;100845.00;5037430;28;20052;-74
2024/01/22 00:41:10;;;;;;;12.30;6.40;;;;;;;3.23;100.00;100851.09;5034631;28;20067;-75
2024/01/22 00:43:39;;;;;;;9.85;5.90;;;;;;;3.21;100.00;100842.38;5007610;28;20049;-76
2024/01/22 00:46:10;;;;;;;11.35;6.03;;;;;;;3.17;100.00;100828.47;5033103;28;20048;-76
2024/01/22 00:48:40;;;;;;;12.50;6.63;;;;;;;3.06;100.00;100812.00;5050124;28;20132;-74
2024/01/22 00:51:10;;;;;;;8.97;6.13;;;;;;;3.13;100.00;100832.00;5035830;28;20057;-75
2024/01/22 00:53:39;;;;;;;15.95;6.78;;;;;;;3.04;100.00;100834.69;5024146;28;20603;-75
2024/01/22 00:56:09;;;;;;;11.50;6.25;;;;;;;2.99;100.00;100829.50;5033787;28;20045;-74
2024/01/22 00:58:38;;;;;;;8.35;5.18;;;;;;;3.05;100.00;100828.59;5020005;28;20049;-75
2024/01/22 01:01:08;;;;;;;9.75;6.03;;;;;;;3.10;100.00;100824.19;5034786;28;20069;-75
2024/01/22 01:03:39;;;;;;;10.77;5.88;;;;;;;3.16;100.00;100811.03;5039420;28;20041;-75
2024/01/22 01:06:10;;;;;;;12.10;6.13;;;;;;;3.16;100.00;100798.81;5028160;28;20694;-75
2024/01/22 01:08:42;;;;;;;11.10;5.38;;;;;;;3.27;100.00;100808.31;5025326;28;20049;-74
2024/01/22 01:11:11;;;;;;;14.18;5.88;;;;;;;3.26;100.00;100803.97;5043833;28;20041;-74
2024/01/22 01:13:39;;;;;;;9.65;5.65;;;;;;;3.25;100.00;100810.06;5022634;28;20049;-73
2024/01/22 01:16:08;;;;;;;14.48;6.30;;;;;;;3.22;100.00;100800.50;5031726;28;20132;-76
2024/01/22 01:18:36;;;;;;;11.93;5.65;;;;;;;3.21;100.00;100803.13;5033083;28;20041;-76
2024/01/22 01:21:05;;;;;;;13.00;5.80;;;;;;;3.21;100.00;100809.22;5025896;28;20570;-75
2024/01/22 01:23:34;;;;;;;9.00;5.90;;;;;;;3.22;100.00;100804.88;5031024;28;20103;-77
2024/01/22 01:26:03;;;;;;;12.73;6.05;;;;;;;3.19;100.00;100800.53;5045731;28;20057;-75
2024/01/22 01:28:35;;;;;;;13.57;6.18;;;;;;;3.12;100.00;100802.34;5010944;28;20368;-75
2024/01/22 01:31:05;;;;;;;13.75;5.97;;;;;;;3.08;100.00;100797.16;5045260;28;20056;-75
2024/01/22 01:33:35;;;;;;;9.18;6.05;;;;;;;3.09;100.00;100802.38;5022390;28;20111;-76
2024/01/22 01:36:06;;;;;;;13.20;6.47;;;;;;;2.95;100.00;100774.63;5047587;28;20091;-76
2024/01/22 01:38:33;;;;;;;10.95;6.25;;;;;;;3.02;100.00;100784.13;5046175;28;20046;-76
2024/01/22 01:41:01;;;;;;;9.45;5.60;;;;;;;3.08;100.00;100794.53;5043658;28;20075;-75
2024/01/22 01:43:30;;;;;;;11.18;5.88;;;;;;;2.90;100.00;100758.09;5021807;28;20213;-75
2024/01/22 01:45:58;;;;;;;10.57;6.00;;;;;;;3.00;100.00;100778.03;5033062;28;20543;-75
2024/01/22 01:48:30;;;;;;;10.45;5.80;;;;;;;2.98;100.00;100770.25;5025780;28;20057;-74
2024/01/22 01:51:00;;;;;;;11.27;5.70;;;;;;;2.99;100.00;100769.31;5033343;28;20045;-75
2024/01/22 01:53:32;;;;;;;12.73;6.55;;;;;;;2.98;100.00;100770.25;5005832;28;20071;-74
2024/01/22 01:56:03;;;;;;;11.75;6.03;;;;;;;2.95;100.00;100761.53;5039859;28;20049;-75
2024/01/22 01:58:33;;;;;;;11.68;5.82;;;;;;;2.94;100.00;100760.69;5052689;28;20045;-76
2024/01/22 02:01:02;;;;;;;11.23;5.90;;;;;;;2.94;100.00;100750.22;5024506;28;20127;-74
2024/01/22 02:03:31;;;;;;;11.32;6.10;;;;;;;2.99;100.00;100745.78;5035797;28;20046;-75
2024/01/22 02:06:00;;;;;;;11.30;6.38;;;;;;;3.01;100.00;100748.38;5011270;28;20455;-74
2024/01/22 02:08:34;;;;;;;10.05;6.13;;;;;;;2.76;100.00;100698.09;5030605;28;20109;-75
2024/01/22 02:11:01;;;;;;;11.68;6.78;;;;;;;2.95;100.00;100728.41;5048765;28;20053;-76
2024/01/22 02:13:31;;;;;;;14.43;6.25;;;;;;;3.01;100.00;100735.31;5016384;28;20132;-75
2024/01/22 02:15:59;;;;;;;12.63;6.43;;;;;;;3.04;100.00;100717.81;5046519;28;20045;-75
2024/01/22 02:18:28;;;;;;;11.10;5.70;;;;;;;2.97;100.00;100697.88;5024489;28;20055;-74
2024/01/22 02:20:56;;;;;;;13.15;6.78;;;;;;;3.03;100.00;100710.84;5039508;28;20045;-73
2024/01/22 02:23:27;;;;;;;9.73;6.28;;;;;;;3.00;100.00;100703.03;5010310;28;20041;-74
2024/01/22 02:25:55;;;;;;;14.75;6.55;;;;;;;2.98;100.00;100697.00;5051896;28;20057;-76
2024/01/22 02:28:28;;;;;;;;;;;;;;;3.01;100.00;100677.75;5038794;28;20061;-74
2024/01/22 02:30:56;;;;;;;14.93;6.10;;;;;;;2.97;100.00;100663.00;5026242;28;19995;-74
2024/01/22 02:33:24;;;;;;;11.82;6.13;;;;;;;2.98;100.00;100669.97;5026501;28;20040;-74
2024/01/22 02:35:54;;;;;;;12.13;6.57;;;;;;;2.92;100.00;100673.50;5036435;28;20069;-75
2024/01/22 02:38:22;;;;;;;14.23;6.28;;;;;;;2.89;100.00;100673.53;5036369;28;20049;-74
2024/01/22 02:40:51;;;;;;;13.43;5.93;;;;;;;2.85;100.00;100670.97;5043284;28;20042;-75
2024/01/22 02:43:21;;;;;;;12.90;6.70;;;;;;;2.83;100.00;100657.94;5029728;28;20084;-75
2024/01/22 02:45:50;;;;;;;9.63;6.10;;;;;;;2.75;100.00;100651.91;5047431;28;20080;-75
2024/01/22 02:48:19;;;;;;;11.82;5.97;;;;;;;2.86;100.00;100657.88;5042018;28;20042;-75
2024/01/22 02:50:50;;;;;;;10.10;6.40;;;;;;;2.90;100.00;100659.56;5046197;28;20095;-76
2024/01/22 02:53:21;;;;;;;12.65;5.90;;;;;;;2.90;100.00;100656.09;5013806;28;20045;-75
2024/01/22 02:55:53;;;;;;;12.65;6.25;;;;;;;2.87;100.00;100656.97;5004614;28;20052;-75
2024/01/22 02:58:21;;;;;;;11.07;5.60;;;;;;;2.94;100.00;100652.56;5044096;28;20510;-75
2024/01/22 03:00:50;;;;;;;10.48;5.90;;;;;;;2.92;100.00;100649.97;5027111;28;20530;-76
2024/01/22 03:03:19;;;;;;;14.98;5.90;;;;;;;2.84;100.00;100612.56;5035963;28;20060;-75
2024/01/22 03:05:55;;;;;;;13.77;5.85;;;;;;;2.93;100.00;100617.69;5019365;28;20066;-75
2024/01/22 03:08:26;;;;;;;8.52;5.10;;;;;;;2.97;100.00;100629.00;4996804;28;20057;-77
2024/01/22 03:10:58;;;;;;;9.65;5.38;;;;;;;3.01;100.00;100622.81;5051943;28;20053;-76
2024/01/22 03:13:28;;;;;;;10.18;5.47;;;;;;;3.02;100.00;100614.94;5023863;28;20454;-76
2024/01/22 03:15:57;;;;;;;13.45;5.65;;;;;;;3.03;100.00;100615.81;5035530;28;20056;-76
2024/01/22 03:18:25;;;;;;;14.15;5.72;;;;;;;3.04;100.00;100604.47;5057789;28;20410;-76
2024/01/22 03:20:58;;;;;;;12.05;5.28;;;;;;;3.02;100.00;100606.22;5024049;28;20048;-75
2024/01/22 03:23:27;;;;;;;12.98;4.97;;;;;;;2.96;100.00;100612.44;5030795;28;20045;-75
2024/01/22 03:25:55;;;;;;;10.07;5.35;;;;;;;3.05;100.00;100614.03;5047338;28;20041;-76
2024/01/22 03:28:24;;;;;;;13.77;5.07;;;;;;;3.03;100.00;100597.50;5028326;28;20231;-76
2024/01/22 03:30:55;;;;;;;13.85;5.57;;;;;;;3.13;100.00;100597.38;5032902;28;20065;-75
2024/01/22 03:33:31;;;;;;;11.07;4.50;;;;;;;3.13;100.00;100588.66;5033932;28;20141;-75
2024/01/22 03:36:07;;;;;;;9.55;4.55;;;;;;;3.06;100.00;100571.31;5032352;28;20037;-75
2024/01/22 03:38:35;;;;;;;10.98;4.70;;;;;;;3.08;100.00;100567.78;5037833;28;20569;-75
2024/01/22 03:41:04;;;;;;;8.27;4.45;;;;;;;3.07;100.00;100567.81;5029586;28;20049;-75
2024/01/22 03:43:39;;;;;;;9.30;4.28;;;;;;;3.03;100.00;100553.91;5031189;28;20065;-76
2024/01/22 03:46:09;;;;;;;9.85;4.40;;;;;;;3.01;100.00;100545.19;5042574;28;20510;-77
2024/01/22 03:48:36;;;;;;;6.73;4.40;;;;;;;3.03;100.00;100553.03;5046177;28;20486;-76
2024/01/22 03:51:08;;;;;;;8.70;3.88;;;;;;;3.03;100.00;100540.81;5032307;28;20087;-75
2024/01/22 03:53:38;;;;;;;8.27;4.47;;;;;;;3.03;100.00;100532.97;5022655;28;20041;-77
2024/01/22 03:56:09;;;;;;;9.65;3.95;;;;;;;2.97;100.00;100516.50;5048116;28;20110;-75
2024/01/22 03:58:40;;;;;;;9.02;4.45;;;;;;;3.08;100.00;100525.94;5043064;28;20051;-76
2024/01/22 04:01:09;;;;;;;7.45;4.03;;;;;;;3.24;100.00;100517.84;5025528;28;20061;-77
2024/01/22 04:03:37;;;;;;;6.60;3.65;;;;;;;3.27;100.00;100509.97;5027152;28;20053;-74
2024/01/22 04:06:06;;;;;;;6.90;4.20;;;;;;;3.18;100.00;100488.25;5032355;28;20100;-76
2024/01/22 04:08:35;;;;;;;10.13;3.70;;;;;;;3.30;100.00;100488.97;5045541;28;20039;-76
2024/01/22 04:11:03;;;;;;;7.07;3.40;;;;;;;3.35;100.00;100480.13;5021399;28;20133;-75
2024/01/22 04:13:32;;;;;;;8.30;3.92;;;;;;;3.38;100.00;100471.38;5040536;28;20042;-75
2024/01/22 04:16:04;;;;;;;9.43;3.67;;;;;;;3.43;100.00;100474.78;5045826;28;20144;-76
2024/01/22 04:18:32;;;;;;;10.95;3.42;;;;;;;3.42;100.00;100463.47;4999524;28;20417;-76
2024/01/22 04:21:02;;;;;;;7.72;3.63;;;;;;;3.43;100.00;100457.34;5046852;28;20209;-78
2024/01/22 04:23:30;;;;;;;7.25;3.90;;;;;;;3.52;100.00;100459.78;5022998;28;20040;-76
2024/01/22 04:26:00;;;;;;;6.20;3.45;;;;;;;3.53;100.00;100461.50;5023452;28;20041;-75
2024/01/22 04:28:30;;;;;;;8.13;3.65;;;;;;;3.56;100.00;100444.91;5036224;28;20076;-77
2024/01/22 04:30:59;;;;;;;7.35;3.65;;;;;;;3.59;100.00;100443.97;5030367;28;20056;-77
2024/01/22 04:33:30;;;;;;;7.32;3.30;;;;;;;3.58;100.00;100445.72;5050073;28;20041;-78
2024/01/22 04:35:58;;;;;;;6.13;3.50;;;;;;;3.63;100.00;100450.88;5034737;28;20530;-76
2024/01/22 04:38:28;;;;;;;8.93;3.13;;;;;;;3.64;100.00;100450.84;5054224;28;20076;-78
2024/01/22 04:40:57;;;;;;;7.15;3.70;;;;;;;3.53;100.00;100430.09;5037819;28;20051;-75
2024/01/22 04:43:27;;;;;;;6.40;3.35;;;;;;;3.67;100.00;100439.44;5037436;28;20045;-75
2024/01/22 04:45:58;;;;;;;6.90;3.55;;;;;;;3.60;100.00;100425.63;5049933;28;20064;-76
2024/01/22 04:48:27;;;;;;;7.60;3.33;;;;;;;3.64;100.00;100422.03;5049223;28;20075;-76
2024/01/22 04:50:57;;;;;;;6.80;3.42;;;;;;;3.60;100.00;100422.16;5039384;28;20049;-75
2024/01/22 04:53:26;;;;;;;7.40;3.67;;;;;;;3.64;100.00;100432.50;5033178;28;20049;-75
2024/01/22 04:55:54;;;;;;;5.60;3.25;;;;;;;3.56;100.00;100404.75;5036163;28;20455;-76
2024/01/22 04:58:22;;;;;;;9.25;3.33;;;;;;;3.62;100.00;100421.19;5039522;28;20102;-78
2024/01/22 05:00:54;;;;;;;6.90;3.45;;;;;;;3.55;100.00;100384.69;5046436;28;20046;-76
2024/01/22 05:03:23;;;;;;;7.63;3.58;;;;;;;3.53;100.00;100390.81;5057495;28;20056;-77
2024/01/22 05:05:59;;;;;;;7.53;3.35;;;;;;;3.53;100.00;100382.09;5038170;28;20069;-76
2024/01/22 05:08:28;;;;;;;9.10;3.30;;;;;;;3.65;100.00;100384.50;5034751;28;20522;-76
2024/01/22 05:11:06;;;;;;;5.50;2.92;;;;;;;3.68;100.00;100387.06;5030518;28;20049;-76
2024/01/22 05:13:50;;;;;;;7.90;2.97;;;;;;;3.72;100.00;100366.91;5038380;28;20806;-77
2024/01/22 05:16:19;;;;;;;7.00;2.95;;;;;;;3.70;100.00;100356.47;5044629;28;20097;-78
2024/01/22 05:18:49;;;;;;;8.23;3.45;;;;;;;3.75;100.00;100361.63;5038144;28;20048;-76
2024/01/22 05:21:21;;;;;;;5.97;3.10;;;;;;;3.86;100.00;100359.66;5044469;28;20045;-77
2024/01/22 05:23:51;;;;;;;5.22;2.80;;;;;;;3.91;100.00;100360.44;5025965;28;20045;-76
2024/01/22 05:26:20;;;;;;;6.65;2.92;;;;;;;3.88;100.00;100344.75;5054712;28;20038;-77
2024/01/22 05:28:48;;;;;;;6.72;2.95;;;;;;;3.91;100.00;100347.31;5045853;28;20097;-76
2024/01/22 05:31:17;;;;;;;6.50;3.10;;;;;;;3.99;100.00;100349.78;5061708;28;20091;-78
2024/01/22 05:33:45;;;;;;;4.43;2.70;;;;;;;3.90;100.00;100321.16;5044594;28;20049;-76
2024/01/22 05:36:15;;;;;;;5.85;3.05;;;;;;;4.03;100.00;100346.19;5054900;28;20033;-77
2024/01/22 05:38:47;;;;;;;6.28;2.78;;;;;;;4.04;100.00;100340.94;5060056;28;20129;-76
2024/01/22 05:41:16;;;;;;;5.60;2.72;;;;;;;4.08;100.00;100329.50;5046326;28;20041;-77
2024/01/22 05:43:44;;;;;;;4.72;2.70;;;;;;;4.08;100.00;100333.88;5058493;28;20045;-76
2024/01/22 05:46:13;;;;;;;5.55;2.83;;;;;;;4.05;100.00;100337.41;5051880;28;20048;-77
2024/01/22 05:48:41;;;;;;;6.50;2.92;;;;;;;3.97;100.00;100339.31;5055127;28;20053;-77
2024/01/22 05:51:11;;;;;;;6.18;2.70;;;;;;;4.00;100.00;100347.13;5040210;28;20045;-76
2024/01/22 05:53:42;;;;;;;5.83;2.80;;;;;;;3.88;100.00;100314.19;5044538;28;20053;-75
2024/01/22 05:56:22;;;;;;;4.68;2.58;;;;;;;4.13;100.00;100337.22;5054101;28;20108;-77
2024/01/22 05:58:52;;;;;;;4.90;2.58;;;;;;;4.12;100.00;100341.63;5025404;28;20053;-77
2024/01/22 06:01:22;;;;;;;8.20;2.55;;;;;;;4.20;100.00;100338.84;5035599;28;20064;-75
2024/01/22 06:03:51;;;;;;;;;;;;;;;4.23;100.00;100331.78;5054396;28;20054;-75
2024/01/22 06:06:20;;;;;;;6.80;2.40;;;;;;;4.21;100.00;100330.09;5047540;28;19943;-76
2024/01/22 06:08:51;;;;;;;4.30;2.20;;;;;;;4.27;100.00;100322.06;5043366;28;20068;-77
2024/01/22 06:11:36;;;;;;;3.97;2.53;;;;;;;4.31;100.00;100331.59;5036854;28;20122;-76
2024/01/22 06:14:04;;;;;;;5.82;2.45;;;;;;;4.27;100.00;100314.19;5030026;28;20120;-76
2024/01/22 06:16:32;;;;;;;4.88;2.33;;;;;;;4.31;100.00;100321.09;5027928;28;20046;-76
2024/01/22 06:19:01;;;;;;;4.20;2.38;;;;;;;4.31;100.00;100315.00;5028479;28;20755;-76
2024/01/22 06:21:30;;;;;;;5.75;2.55;;;;;;;4.32;100.00;100321.97;5034934;28;20547;-75
2024/01/22 06:23:59;;;;;;;4.45;2.30;;;;;;;4.26;100.00;100309.84;5045283;28;20067;-77
2024/01/22 06:26:30;;;;;;;5.18;2.40;;;;;;;4.20;100.00;100316.13;5027220;28;20091;-75
2024/01/22 06:29:02;;;;;;;6.22;3.10;;;;;;;4.12;100.00;100297.06;5029409;28;20051;-77
2024/01/22 06:31:31;;;;;;;7.88;3.58;;;;;;;4.12;100.00;100304.06;5029727;28;20041;-78
2024/01/22 06:33:58;;;;;;;7.35;3.42;;;;;;;4.06;100.00;100298.97;5030428;28;20568;-77
2024/01/22 06:36:28;;;;;;;5.80;2.90;;;;;;;4.05;100.00;100298.13;5031757;28;20048;-78
2024/01/22 06:38:56;;;;;;;5.93;2.53;;;;;;;3.94;100.00;100271.25;5032644;28;20041;-77
2024/01/22 06:41:25;;;;;;;5.20;2.60;;;;;;;4.04;100.00;100292.91;5022703;28;20034;-78
2024/01/22 06:43:53;;;;;;;5.38;2.78;;;;;;;4.00;100.00;100299.97;5027271;28;20060;-77
2024/01/22 06:46:24;;;;;;;8.07;3.10;;;;;;;4.08;100.00;100297.19;5023695;28;20052;-74
2024/01/22 06:48:53;;;;;;;5.82;2.88;;;;;;;4.04;100.00;100296.38;5029503;28;20078;-77
2024/01/22 06:51:22;;;;;;;5.80;2.92;;;;;;;4.01;100.00;100291.22;5042613;28;20037;-76
2024/01/22 06:54:04;;;;;;;6.50;3.20;;;;;;;4.06;100.00;100298.97;5026516;28;20061;-78
2024/01/22 06:56:48;;;;;;;7.50;3.40;;;;;;;4.17;100.00;100312.69;5030743;28;20049;-76
2024/01/22 06:59:18;;;;;;;8.48;3.13;;;;;;;4.24;100.00;100309.06;5040163;28;20483;-76
2024/01/22 07:01:48;;;;;;;9.07;3.47;;;;;;;4.29;100.00;100320.28;5050349;28;20118;-74
2024/01/22 07:04:16;;;;;;;8.02;3.08;;;;;;;4.23;100.00;100302.09;5041923;28;20045;-76
2024/01/22 07:06:44;;;;;;;7.35;3.03;;;;;;;4.26;100.00;100317.72;5041405;28;20120;-75
2024/01/22 07:09:12;;;;;;;5.13;3.40;;;;;;;4.18;100.00;100317.03;5042873;28;20121;-74
2024/01/22 07:11:42;;;;;;;10.20;3.70;;;;;;;4.13;100.00;100319.75;5033281;28;20047;-74
2024/01/22 07:14:12;;;;;;;6.63;3.65;;;;;;;4.08;100.00;100312.91;5037458;28;20124;-75
2024/01/22 07:16:42;;;;;;;5.43;3.05;;;;;;;3.95;100.00;100300.94;5021791;28;20509;-77
2024/01/22 07:19:14;;;;;;;9.32;3.72;;;;;;;4.00;100.00;100310.44;5039643;28;20045;-75
2024/01/22 07:21:43;;;;;;;7.93;3.80;;;;;;;3.68;100.00;100255.25;5037147;28;20053;-76
2024/01/22 07:24:12;;;;;;;7.65;3.88;;;;;;;3.92;100.00;100311.50;5058424;28;20053;-76
2024/01/22 07:26:42;;;;;;;9.10;4.05;;;;;;;3.86;100.00;100312.50;5026533;28;20052;-78
2024/01/22 07:29:25;;;;;;;7.90;3.78;;;;;;;3.85;100.00;100300.28;5049473;28;20065;-75
2024/01/22 07:31:54;;;;;;;10.23;4.55;;;;;;;3.84;100.00;100312.53;5037854;28;20045;-75
2024/01/22 07:34:26;;;;;;;10.40;4.40;;;;;;;3.82;100.00;100300.34;5034735;28;20045;-75
2024/01/22 07:36:58;;;;;;;6.30;3.83;;;;;;;3.82;100.00;100292.50;5024032;28;20046;-76
2024/01/22 07:39:28;;;;;;;7.78;3.53;;;;;;;3.82;100.00;100300.34;5030164;28;20113;-76
2024/01/22 07:41:57;;;;;;;8.52;4.10;;;;;;;3.88;100.00;100297.63;5033211;28;20108;-77
2024/01/22 07:44:25;;;;;;;7.65;4.10;;;;;;;3.89;100.00;100296.72;5008566;28;20041;-74
2024/01/22 07:46:55;;;;;;;10.27;4.03;;;;;;;3.86;100.00;100291.53;5019565;28;20056;-74
2024/01/22 07:49:34;;;;;;;10.85;4.13;;;;;;;3.87;100.00;100304.59;5029752;28;20067;-76
2024/01/22 07:52:05;;;;;;;13.10;4.78;;;;;;;3.91;100.00;100296.69;5032153;28;20041;-74
2024/01/22 07:54:38;;;;;;;13.02;5.45;;;;;;;3.87;100.00;100299.38;5048096;28;20087;-73
2024/01/22 07:57:10;;;;;;;10.35;4.32;;;;;;;3.88;100.00;100300.22;5040911;28;20049;-75
2024/01/22 07:59:38;;;;;;;12.10;4.80;;;;;;;3.91;100.00;100294.06;5028172;28;20084;-76
2024/01/22 08:02:10;;;;;;;10.43;4.13;;;;;;;3.94;100.00;100294.84;5020276;28;20046;-75
2024/01/22 08:04:40;;;;;;;10.90;3.92;;;;;;;3.94;100.00;100289.59;5036529;28;20048;-74
2024/01/22 08:07:09;;;;;;;12.10;4.70;;;;;;;4.06;100.00;100299.84;5036627;28;20046;-74
2024/01/22 08:09:42;;;;;;;10.43;4.10;;;;;;;4.06;100.00;100291.97;5042543;28;20045;-74
2024/01/22 08:12:11;;;;;;;9.75;4.07;;;;;;;4.04;100.00;100293.75;5042808;28;20045;-75
2024/01/22 08:14:39;;;;;;;10.65;3.50;;;;;;;4.02;100.00;100287.69;5026697;28;20064;-76
2024/01/22 08:17:08;;;;;;;11.35;3.88;;;;;;;3.98;100.00;100293.88;5035593;28;20045;-77
2024/01/22 08:19:36;;;;;;;8.95;4.40;;;;;;;4.02;100.00;100303.41;5040216;28;20049;-74
2024/01/22 08:22:09;;;;;;;10.88;4.00;;;;;;;4.02;100.00;100286.81;5050612;28;20049;-75
2024/01/22 08:24:42;;;;;;;8.88;3.90;;;;;;;4.09;100.00;100293.66;5035462;28;20033;-76
2024/01/22 08:27:13;;;;;;;11.30;4.22;;;;;;;4.06;100.00;100278.88;5031296;28;20069;-75
2024/01/22 08:29:42;;;;;;;9.77;3.90;;;;;;;4.17;100.00;100292.59;5046332;28;20045;-74
2024/01/22 08:32:10;;;;;;;9.95;4.38;;;;;;;4.21;100.00;100285.53;5037476;28;20087;-75
2024/01/22 08:34:38;;;;;;;10.02;3.83;;;;;;;4.11;100.00;100263.88;5045237;28;20056;-75
2024/01/22 08:37:08;;;;;;;6.47;3.25;;;;;;;4.25;100.00;100289.78;5043243;28;20552;-75
2024/01/22 08:39:37;;;;;;;12.75;3.85;;;;;;;4.24;100.00;100301.19;5033287;28;20141;-75
2024/01/22 08:42:08;;;;;;;9.75;3.45;;;;;;;4.17;100.00;100276.00;5054417;28;20041;-76
2024/01/22 08:44:38;;;;;;;8.70;3.72;;;;;;;4.29;100.00;100291.44;5036539;28;20063;-76
2024/01/22 08:47:08;;;;;;;10.30;3.00;;;;;;;4.39;100.00;100289.50;5011642;28;20463;-74
2024/01/22 08:49:37;;;;;;;8.32;3.28;;;;;;;4.40;100.00;100292.06;5039330;28;20051;-74
2024/01/22 08:52:06;;;;;;;10.20;3.22;;;;;;;4.40;100.00;100278.09;5021502;28;20057;-74
2024/01/22 08:54:38;;;;;;;9.52;3.70;;;;;;;4.49;100.00;100289.22;5026253;28;20053;-75
2024/01/22 08:57:10;;;;;;;7.57;3.90;;;;;;;4.54;100.00;100290.00;5031925;28;20067;-73
2024/01/22 08:59:40;;;;;;;10.00;4.13;;;;;;;4.54;100.00;100292.59;5031009;28;20133;-73
2024/01/22 09:02:09;;;;;;;14.00;3.67;;;;;;;4.56;100.00;100293.41;5032692;28;20141;-73
2024/01/22 09:04:38;;;;;;;11.75;3.88;;;;;;;4.50;100.00;100259.47;5029424;28;20179;-73
2024/01/22 09:07:06;;;;;;;11.13;4.03;;;;;;;4.70;100.00;100264.25;5036882;28;20053;-75
2024/01/22 09:09:39;;;;;;;7.07;3.42;;;;;;;4.78;100.00;100270.16;5031988;28;20041;-76
2024/01/22 09:12:08;;;;;;;13.15;4.15;;;;;;;4.71;100.00;100252.84;5038014;28;20046;-75
2024/01/22 09:14:39;;;;;;;16.20;3.75;;;;;;;4.88;100.00;100289.13;5032035;28;20046;-75
2024/01/22 09:17:09;;;;;;;6.93;3.35;;;;;;;4.94;100.00;100297.72;5023273;28;20045;-74
2024/01/22 09:19:37;;;;;;;7.20;3.50;;;;;;;5.03;100.00;100294.00;5030546;28;20045;-75
2024/01/22 09:22:11;;;;;;;6.97;3.20;;;;;;;5.12;100.00;100282.41;5027106;28;20148;-74
2024/01/22 09:24:41;;;;;;;10.45;3.38;;;;;;;5.19;100.00;100290.09;5043790;28;20051;-75
2024/01/22 09:27:09;;;;;;;4.97;3.15;;;;;;;5.23;100.00;100285.59;5022539;28;20053;-73
2024/01/22 09:29:38;;;;;;;6.15;3.00;;;;;;;5.17;100.00;100268.25;5034070;28;20417;-75
2024/01/22 09:32:10;;;;;;;7.97;3.20;;;;;;;5.28;100.00;100284.56;5045045;28;20064;-73
2024/01/22 09:34:40;;;;;;;8.50;3.33;;;;;;;5.34;100.00;100286.19;5042017;28;20049;-72
2024/01/22 09:37:08;;;;;;;8.60;3.65;;;;;;;5.40;100.00;100288.63;5026282;28;20052;-75
2024/01/22 09:39:38;;;;;;;7.78;3.10;;;;;;;5.43;100.00;100283.28;5024718;28;20632;-73
2024/01/22 09:42:11;;;;;;;5.32;2.92;;;;;;;5.50;100.00;100281.38;5044763;28;20041;-75
2024/01/22 09:44:41;;;;;;;7.88;3.50;;;;;;;5.62;100.00;100271.38;5028095;28;20049;-74
2024/01/22 09:47:11;;;;;;;9.70;3.53;;;;;;;5.74;100.00;100275.41;5021855;28;20068;-73
2024/01/22 09:49:40;;;;;;;9.45;3.55;;;;;;;5.77;100.00;100272.69;5033742;28;20041;-73
2024/01/22 09:52:17;;;;;;;7.22;3.50;;;;;;;5.87;100.00;100279.38;5049209;28;20048;-74
2024/01/22 09:54:48;;;;;;;8.65;3.53;;;;;;;5.93;100.00;100279.25;5026832;28;20041;-75
2024/01/22 09:57:23;;;;;;;9.55;3.47;;;;;;;5.94;100.00;100266.97;5012413;28;20037;-74
2024/01/22 09:59:59;;;;;;;8.57;3.30;;;;;;;5.97;100.00;100262.47;5023428;28;20106;-74
2024/01/22 10:02:40;;;;;;;8.25;3.65;;;;;;;5.96;100.00;100271.28;5052141;28;20069;-73
2024/01/22 10:05:10;;;;;;;10.93;3.60;;;;;;;5.99;100.00;100265.03;5052069;28;20060;-75
2024/01/22 10:07:38;;;;;;;9.77;3.25;;;;;;;5.90;100.00;100250.41;5042179;28;20060;-74
2024/01/22 10:10:08;;;;;;;7.28;3.88;;;;;;;6.02;100.00;100259.69;5057114;28;20120;-73
2024/01/22 10:13:12;;;;;;;9.73;3.80;;;;;;;5.91;100.00;100246.88;5035411;28;20481;-74
2024/01/22 10:15:43;;;;;;;6.55;3.17;;;;;;;6.02;100.00;100264.09;5027386;28;20045;-74
2024/01/22 10:18:14;;;;;;;11.20;3.83;;;;;;;6.00;100.00;100251.00;5004745;28;20042;-73
2024/01/22 10:20:43;;;;;;;;;;;;;;;6.07;100.00;100259.56;5045937;28;20451;-75
2024/01/22 10:23:15;;;;;;;6.15;2.60;;;;;;;6.12;100.00;100268.19;5033548;28;20017;-76
2024/01/22 10:25:45;;;;;;;10.90;3.55;;;;;;;6.12;100.00;100255.91;5022300;28;20050;-73
2024/01/22 10:28:21;;;;;;;11.07;4.10;;;;;;;6.13;100.00;100256.75;5018247;28;20037;-72
2024/01/22 10:31:11;;;;;;;7.72;3.20;;;;;;;6.17;100.00;100245.22;5038881;28;20045;-74
2024/01/22 10:33:44;;;;;;;6.65;3.03;;;;;;;6.20;100.00;100243.34;5021915;28;20145;-76
2024/01/22 10:36:17;;;;;;;5.95;3.05;;;;;;;6.22;100.00;100238.91;5022708;28;20041;-77
2024/01/22 10:38:50;;;;;;;6.78;2.88;;;;;;;6.24;100.00;100237.09;5026036;28;20502;-75
2024/01/22 10:41:27;;;;;;;6.13;2.95;;;;;;;6.19;100.00;100222.38;5032600;28;20110;-77
2024/01/22 10:43:56;;;;;;;8.13;3.60;;;;;;;6.29;100.00;100229.94;5030570;28;20049;-76
2024/01/22 10:46:27;;;;;;;7.50;3.22;;;;;;;6.31;100.00;100229.84;5005056;28;20573;-74
2024/01/22 10:49:00;;;;;;;5.97;2.65;;;;;;;6.31;100.00;100229.84;5014823;28;20053;-79
2024/01/22 10:51:31;;;;;;;8.10;3.40;;;;;;;6.27;100.00;100217.75;5038933;28;20153;-77
2024/01/22 10:54:01;;;;;;;7.38;3.58;;;;;;;6.25;100.00;100207.25;5044812;28;20506;-76
2024/01/22 10:56:36;;;;;;;10.57;3.70;;;;;;;6.26;100.00;100216.00;5047928;28;20136;-77
2024/01/22 10:59:19;;;;;;;7.05;3.45;;;;;;;6.32;100.00;100219.28;5045236;28;20579;-78
2024/01/22 11:01:54;;;;;;;13.80;3.90;;;;;;;6.30;100.00;100210.59;5011608;28;20041;-77
2024/01/22 11:04:32;;;;;;;7.72;3.35;;;;;;;6.26;100.00;100202.88;5025126;28;20049;-77
2024/01/22 11:07:06;;;;;;;11.88;4.32;;;;;;;6.35;100.00;100207.81;5023016;28;20053;-77
2024/01/22 11:09:36;;;;;;;5.10;3.38;;;;;;;6.32;100.00;100208.78;5026140;28;20144;-75
2024/01/22 11:12:08;;;;;;;;;;;;;;;6.25;100.00;100203.78;5042975;28;20119;-76
2024/01/22 11:14:40;;;;;;;12.50;3.70;;;;;;;6.17;100.00;100188.22;5036446;28;19921;-78
2024/01/22 11:17:13;;;;;;;7.53;3.60;;;;;;;6.21;100.00;100187.22;5024314;28;20056;-78
2024/01/22 11:19:46;;;;;;;8.55;5.43;;;;;;;6.16;100.00;100170.72;5026621;28;20132;-76
2024/01/22 11:22:22;;;;;;;15.95;9.63;;;;;;;6.19;100.00;100167.16;5029264;28;20044;-76
2024/01/22 11:25:04;;;;;;;13.25;6.13;;;;;;;6.21;100.00;100170.59;5040051;28;20053;-76
2024/01/22 11:27:39;;;;;;;12.95;6.03;;;;;;;6.23;100.00;100150.38;5018843;28;20092;-77
2024/01/22 11:30:28;;;;;;;13.32;5.70;;;;;;;6.18;100.00;100141.78;5028808;28;20044;-76
2024/01/22 11:33:02;;;;;;;9.55;4.47;;;;;;;6.18;100.00;100141.78;5032953;28;20102;-78
2024/01/22 11:35:36;;;;;;;12.73;6.60;;;;;;;6.09;100.00;100123.69;5013078;28;20064;-77
2024/01/22 11:38:11;;;;;;;10.57;5.65;;;;;;;6.15;100.00;100124.31;5007927;28;20045;-76